Time;durP1;ratioP1;P1;durP2;ratioP2;P2;SDS_P1;SDS_P2;PMS_P1;PMS_P2;Temp;Humidity;BMP_temperature;BMP_pressure;BME280_temperature;BME280_humidity;BME280_pressure;Samples;Min_cycle;Max_cycle;Signal;HPM_P1;HPM_P2
2022/02/05 00:01:13;;;;;;;1.55;0.77;;;4.70;99.90;;;;;;5052452;28;20125;-68
2022/02/05 00:03:43;;;;;;;1.38;0.60;;;4.80;99.90;;;;;;5053265;28;20017;-69
2022/02/05 00:06:11;;;;;;;0.93;0.90;;;4.70;99.90;;;;;;5052299;28;20206;-69
2022/02/05 00:39:07;;;;;;;1.80;0.90;;;4.00;99.90;;;;;;5051415;28;20858;-68
2022/02/05 00:41:46;;;;;;;1.05;0.80;;;3.90;99.90;;;;;;5051641;28;20178;-68
2022/02/05 00:44:12;;;;;;;2.95;0.88;;;3.80;99.90;;;;;;5031209;28;20028;-68
2022/02/05 00:46:40;;;;;;;1.67;0.60;;;3.70;99.90;;;;;;5031766;28;20029;-68
2022/02/05 00:49:06;;;;;;;3.50;1.05;;;3.60;99.90;;;;;;5038904;28;20036;-68
2022/02/05 00:51:37;;;;;;;1.42;0.88;;;3.50;99.90;;;;;;5051493;28;20025;-69
2022/02/05 00:59:10;;;;;;;3.00;0.95;;;3.20;99.90;;;;;;5050427;28;20029;-68
2022/02/05 01:01:35;;;;;;;1.13;0.70;;;3.10;99.90;;;;;;5051568;28;20086;-68
2022/02/05 01:04:01;;;;;;;3.72;0.70;;;3.10;99.90;;;;;;5050960;28;20102;-69
2022/02/05 01:06:27;;;;;;;2.45;0.70;;;3.10;99.90;;;;;;5051161;28;20021;-68
2022/02/05 01:08:52;;;;;;;2.88;0.85;;;2.90;99.90;;;;;;5050179;28;20121;-68
2022/02/05 01:11:18;;;;;;;1.23;0.80;;;2.90;99.90;;;;;;5050812;28;20017;-68
2022/02/05 01:13:44;;;;;;;5.03;1.08;;;2.90;99.90;;;;;;5051337;28;20036;-68
2022/02/05 01:16:18;;;;;;;2.28;0.90;;;2.70;99.90;;;;;;5050320;28;20069;-68
2022/02/05 01:18:45;;;;;;;4.70;1.00;;;2.70;99.90;;;;;;5050926;28;20041;-68
2022/02/05 01:24:02;;;;;;;3.28;0.90;;;2.50;99.90;;;;;;5050939;28;20025;-68
2022/02/05 01:26:49;;;;;;;7.20;0.88;;;2.60;99.90;;;;;;5050465;28;20033;-69
2022/02/05 01:31:49;;;;;;;4.78;1.23;;;2.30;99.90;;;;;;5050837;28;20386;-69
2022/02/05 01:34:30;;;;;;;3.10;0.65;;;2.20;99.90;;;;;;5050694;28;20116;-69
2022/02/05 01:56:18;;;;;;;3.78;0.82;;;1.80;99.90;;;;;;5053743;28;20057;-68
2022/02/05 02:12:09;;;;;;;3.88;0.90;;;1.60;99.90;;;;;;5053834;28;20035;-68
2022/02/05 02:32:07;;;;;;;6.45;1.25;;;1.30;99.90;;;;;;5053461;28;20025;-70
2022/02/05 02:34:39;;;;;;;4.95;1.08;;;1.20;99.90;;;;;;5054047;28;20071;-69
2022/02/05 02:37:09;;;;;;;5.07;2.67;;;1.20;99.90;;;;;;5053219;28;20035;-68
2022/02/05 02:39:51;;;;;;;2.55;0.85;;;1.10;99.90;;;;;;5053883;28;20037;-68
2022/02/05 02:42:18;;;;;;;3.75;1.33;;;1.00;99.90;;;;;;5053798;28;20125;-68
2022/02/05 02:44:44;;;;;;;7.80;1.00;;;1.00;99.90;;;;;;5053832;28;20036;-68
2022/02/05 02:47:10;;;;;;;3.95;1.30;;;0.90;99.90;;;;;;5053004;28;20637;-68
2022/02/05 02:49:52;;;;;;;2.00;1.20;;;0.90;99.90;;;;;;5053967;28;20025;-70
2022/02/05 02:57:57;;;;;;;5.88;1.60;;;0.90;99.90;;;;;;5053255;28;20048;-68
2022/02/05 03:00:23;;;;;;;5.20;1.13;;;0.80;99.90;;;;;;5053582;28;20107;-68
2022/02/05 03:02:49;;;;;;;5.65;1.85;;;0.80;99.90;;;;;;5053086;28;20124;-68
2022/02/05 03:05:15;;;;;;;6.28;1.67;;;0.80;99.90;;;;;;5053136;28;20029;-69
2022/02/05 03:07:40;;;;;;;3.35;1.92;;;0.80;99.90;;;;;;5053595;28;20033;-68
2022/02/05 03:10:06;;;;;;;3.25;1.60;;;0.80;99.90;;;;;;5052339;28;20033;-68
2022/02/05 03:12:34;;;;;;;3.88;1.60;;;0.80;99.90;;;;;;5053581;28;20049;-68
2022/02/05 03:15:03;;;;;;;6.88;2.33;;;0.70;99.90;;;;;;5052733;28;20025;-68
2022/02/05 03:17:37;;;;;;;7.57;2.13;;;0.70;99.90;;;;;;5053198;28;20035;-68
2022/02/05 03:20:03;;;;;;;7.28;1.73;;;0.70;99.90;;;;;;5052478;28;20024;-68
2022/02/05 03:22:29;;;;;;;5.32;1.40;;;0.70;99.90;;;;;;5053167;28;20099;-68
2022/02/05 03:24:55;;;;;;;6.18;1.70;;;0.70;99.90;;;;;;5052319;28;20451;-68
2022/02/05 03:27:21;;;;;;;10.45;2.08;;;0.80;99.90;;;;;;5053099;28;20107;-68
2022/02/05 03:29:49;;;;;;;4.30;1.40;;;0.90;99.90;;;;;;5053272;28;20091;-68
2022/02/05 03:32:16;;;;;;;3.60;1.50;;;1.00;99.90;;;;;;5052418;28;20040;-69
2022/02/05 03:34:42;;;;;;;7.38;2.50;;;1.00;99.90;;;;;;5053225;28;20064;-68
2022/02/05 03:37:08;;;;;;;4.38;1.45;;;1.00;99.90;;;;;;5052143;28;20057;-68
2022/02/05 03:39:34;;;;;;;9.98;2.38;;;1.00;99.90;;;;;;5052894;28;20033;-68
2022/02/05 03:42:00;;;;;;;9.40;2.20;;;1.10;99.90;;;;;;5051509;28;20039;-68
2022/02/05 03:44:26;;;;;;;7.32;2.10;;;1.10;99.90;;;;;;5053239;28;20029;-68
2022/02/05 03:46:54;;;;;;;5.20;2.00;;;1.20;99.90;;;;;;5052156;28;20367;-68
2022/02/05 03:49:20;;;;;;;5.22;2.00;;;1.20;99.90;;;;;;5052842;28;20056;-68
2022/02/05 03:51:47;;;;;;;4.93;2.05;;;1.10;99.90;;;;;;5052543;28;20040;-68
2022/02/05 03:54:14;;;;;;;3.95;1.65;;;1.10;99.90;;;;;;5051989;28;20033;-68
2022/02/05 03:56:40;;;;;;;6.20;2.35;;;1.20;99.90;;;;;;5051940;28;20063;-68
2022/02/05 03:59:06;;;;;;;6.15;2.00;;;1.20;99.90;;;;;;5051939;28;20033;-68
2022/02/05 04:01:33;;;;;;;4.03;2.13;;;1.30;99.90;;;;;;5051902;28;20037;-68
2022/02/05 04:03:58;;;;;;;3.88;2.00;;;1.30;99.90;;;;;;5051832;28;20025;-68
2022/02/05 04:06:24;;;;;;;3.88;1.80;;;1.20;99.90;;;;;;5051762;28;20029;-68
2022/02/05 04:08:51;;;;;;;6.05;2.22;;;1.20;99.90;;;;;;5052305;28;20033;-68
2022/02/05 04:11:55;;;;;;;3.28;1.85;;;1.20;99.90;;;;;;5051586;28;20226;-68
2022/02/05 04:17:05;;;;;;;4.68;1.80;;;1.10;99.90;;;;;;5051352;28;20036;-68
2022/02/05 04:19:31;;;;;;;6.93;1.80;;;1.20;99.90;;;;;;5051816;28;20032;-68
2022/02/05 04:21:56;;;;;;;6.25;2.08;;;1.30;99.90;;;;;;5050835;28;20078;-68
2022/02/05 04:24:22;;;;;;;7.32;2.08;;;1.20;99.90;;;;;;5052092;28;20025;-68
2022/02/05 04:26:48;;;;;;;4.63;2.00;;;1.10;99.90;;;;;;5051988;28;20033;-68
2022/02/05 04:29:14;;;;;;;7.00;1.83;;;1.10;99.90;;;;;;5051407;28;20029;-68
2022/02/05 04:31:40;;;;;;;5.57;1.98;;;1.20;99.90;;;;;;5052055;28;20476;-68
2022/02/05 04:34:06;;;;;;;4.05;1.85;;;1.30;99.90;;;;;;5051069;28;20029;-68
2022/02/05 04:36:34;;;;;;;4.93;2.33;;;1.40;99.90;;;;;;5051664;28;20379;-69
2022/02/05 04:39:07;;;;;;;4.03;1.42;;;1.50;99.90;;;;;;5050952;28;20119;-68
2022/02/05 04:42:01;;;;;;;3.13;1.73;;;1.50;99.90;;;;;;5035729;28;20396;-68
2022/02/05 04:55:14;;;;;;;6.80;1.92;;;1.80;99.90;;;;;;5051045;28;20074;-68
2022/02/05 04:57:55;;;;;;;3.85;1.48;;;1.80;99.90;;;;;;5051110;28;20053;-68
2022/02/05 05:00:40;;;;;;;7.30;2.10;;;1.80;99.90;;;;;;5050307;28;20040;-68
2022/02/05 05:06:03;;;;;;;3.67;1.70;;;1.90;99.90;;;;;;5051371;28;20029;-68
2022/02/05 05:09:42;;;;;;;8.48;1.80;;;2.00;99.90;;;;;;5051058;28;20029;-68
2022/02/05 05:11:44;;;;;;;7.30;1.60;;;2.00;99.90;;;;;;5045871;28;20482;-68
2022/02/05 05:19:36;;;;;;;5.30;1.67;;;2.20;99.90;;;;;;5031446;28;20060;-68
2022/02/05 05:22:02;;;;;;;6.47;1.50;;;2.20;99.90;;;;;;5036376;28;20032;-68
2022/02/05 05:24:29;;;;;;;5.05;1.50;;;2.30;99.90;;;;;;5051204;28;20032;-68
2022/02/05 05:26:55;;;;;;;6.28;1.50;;;2.30;99.90;;;;;;5050125;28;20032;-69
2022/02/05 05:29:21;;;;;;;4.10;1.33;;;2.30;99.90;;;;;;5050770;28;20457;-68
2022/02/05 05:31:47;;;;;;;6.13;1.77;;;2.30;99.90;;;;;;5050701;28;20432;-68
2022/02/05 05:34:13;;;;;;;4.82;1.75;;;2.30;99.90;;;;;;5050464;28;20032;-68
2022/02/05 05:36:39;;;;;;;6.40;1.60;;;2.30;99.90;;;;;;5050749;28;20071;-68
2022/02/05 05:39:05;;;;;;;6.25;1.35;;;2.30;99.90;;;;;;5050066;28;20600;-68
2022/02/05 05:41:33;;;;;;;2.50;1.38;;;2.30;99.90;;;;;;5050673;28;20037;-68
2022/02/05 05:49:17;;;;;;;7.18;1.92;;;2.30;99.90;;;;;;5050238;28;20060;-68
2022/02/05 05:51:44;;;;;;;3.15;1.92;;;2.30;99.90;;;;;;5050941;28;20021;-68
2022/02/05 05:54:10;;;;;;;6.43;2.70;;;2.30;99.90;;;;;;5045158;28;20039;-68
2022/02/05 05:56:37;;;;;;;5.18;1.70;;;2.30;99.90;;;;;;5050639;28;20076;-67
2022/02/05 05:59:04;;;;;;;5.00;1.77;;;2.30;99.90;;;;;;5049687;28;20029;-67
2022/02/05 06:01:30;;;;;;;6.07;2.00;;;2.30;99.90;;;;;;5050894;28;20033;-67
2022/02/05 06:03:56;;;;;;;7.90;2.22;;;2.30;99.90;;;;;;5049777;28;20033;-67
2022/02/05 06:06:23;;;;;;;6.35;1.85;;;2.40;99.90;;;;;;5050882;28;20439;-67
2022/02/05 06:08:49;;;;;;;4.70;1.75;;;2.40;99.90;;;;;;5050375;28;20730;-67
2022/02/05 06:11:14;;;;;;;5.32;1.95;;;2.50;99.90;;;;;;5049894;28;20021;-67
2022/02/05 06:13:40;;;;;;;4.70;1.83;;;2.50;99.90;;;;;;5050317;28;20079;-69
2022/02/05 06:16:10;;;;;;;5.03;1.63;;;2.60;99.90;;;;;;5049775;28;20037;-70
2022/02/05 06:18:36;;;;;;;8.00;1.80;;;2.60;99.90;;;;;;5050712;28;20028;-67
2022/02/05 06:21:02;;;;;;;5.70;1.58;;;2.70;99.90;;;;;;5049653;28;20029;-67
2022/02/05 06:23:27;;;;;;;5.65;1.70;;;2.70;99.90;;;;;;5050137;28;20041;-67
2022/02/05 06:25:53;;;;;;;6.25;1.60;;;2.70;99.90;;;;;;5052437;28;20029;-67
2022/02/05 06:28:19;;;;;;;5.07;1.48;;;2.70;99.90;;;;;;5054205;28;20382;-67
2022/02/05 06:30:45;;;;;;;6.15;1.73;;;2.70;99.90;;;;;;5054275;28;20155;-67
2022/02/05 06:33:12;;;;;;;4.53;1.40;;;2.70;99.90;;;;;;5053575;28;20599;-67
2022/02/05 06:35:37;;;;;;;3.40;1.60;;;2.60;99.90;;;;;;5054289;28;20032;-67
2022/02/05 06:38:03;;;;;;;5.03;2.05;;;2.60;99.90;;;;;;5053510;28;20359;-67
2022/02/05 06:40:29;;;;;;;5.78;2.13;;;2.60;99.90;;;;;;5053651;28;20466;-68
2022/02/05 06:42:55;;;;;;;6.38;1.80;;;2.60;99.90;;;;;;5052771;28;20043;-67
2022/02/05 06:45:21;;;;;;;6.53;1.85;;;2.70;99.90;;;;;;5054063;28;20111;-68
2022/02/05 06:47:46;;;;;;;6.65;2.10;;;2.70;99.90;;;;;;5053927;28;20032;-68
2022/02/05 06:50:13;;;;;;;6.53;2.22;;;2.70;99.90;;;;;;5053035;28;20088;-68
2022/02/05 06:52:40;;;;;;;3.88;1.70;;;2.60;99.90;;;;;;5053970;28;20043;-68
2022/02/05 06:55:07;;;;;;;7.35;2.15;;;2.60;99.90;;;;;;5052759;28;20083;-68
2022/02/05 06:57:33;;;;;;;6.38;2.03;;;2.60;99.90;;;;;;5053740;28;20049;-67
2022/02/05 06:59:59;;;;;;;4.53;1.80;;;2.70;99.90;;;;;;5052523;28;20486;-67
2022/02/05 07:02:25;;;;;;;8.15;2.10;;;2.70;99.90;;;;;;5033826;28;20037;-67
2022/02/05 07:04:50;;;;;;;6.40;2.72;;;2.60;99.90;;;;;;5049086;28;20067;-67
2022/02/05 07:07:16;;;;;;;4.00;1.60;;;2.60;99.90;;;;;;5052908;28;20036;-67
2022/02/05 07:09:42;;;;;;;5.72;2.10;;;2.60;99.90;;;;;;5053669;28;20041;-68
2022/02/05 07:12:10;;;;;;;11.43;2.17;;;2.60;99.90;;;;;;5052868;28;20049;-68
2022/02/05 07:14:44;;;;;;;6.43;2.00;;;2.60;99.90;;;;;;5053134;28;20028;-67
2022/02/05 07:18:10;;;;;;;5.72;1.52;;;2.70;99.90;;;;;;5052510;28;20547;-67
2022/02/05 07:22:22;;;;;;;6.00;1.88;;;2.80;99.90;;;;;;5053060;28;20086;-67
2022/02/05 07:29:58;;;;;;;6.43;1.98;;;2.70;99.90;;;;;;5051978;28;20039;-69
2022/02/05 07:32:24;;;;;;;5.82;1.90;;;2.70;99.90;;;;;;5053571;28;20028;-67
2022/02/05 07:34:50;;;;;;;6.15;1.92;;;2.80;99.90;;;;;;5052770;28;20021;-67
2022/02/05 07:37:17;;;;;;;7.32;2.30;;;2.80;99.90;;;;;;5051285;28;20033;-69
2022/02/05 07:39:46;;;;;;;6.05;2.05;;;2.80;99.90;;;;;;5053006;28;20076;-67
2022/02/05 07:42:14;;;;;;;5.22;1.92;;;2.80;99.90;;;;;;5052172;28;20366;-69
2022/02/05 07:44:40;;;;;;;6.18;2.53;;;2.80;99.90;;;;;;5048846;28;20378;-68
2022/02/05 07:47:06;;;;;;;6.85;2.28;;;2.90;99.90;;;;;;5051773;28;20037;-68
2022/02/05 07:49:38;;;;;;;7.25;2.00;;;2.90;99.90;;;;;;5052163;28;20044;-69
2022/02/05 07:52:07;;;;;;;6.50;2.42;;;2.90;99.90;;;;;;5050386;28;20393;-68
2022/02/05 07:54:33;;;;;;;8.18;2.65;;;3.00;99.90;;;;;;5050874;28;20029;-68
2022/02/05 07:56:58;;;;;;;8.93;2.22;;;2.90;99.90;;;;;;5050788;28;20056;-67
2022/02/05 07:59:24;;;;;;;9.63;2.10;;;2.90;99.90;;;;;;5051428;28;20048;-68
2022/02/05 08:01:50;;;;;;;6.75;1.80;;;2.90;99.90;;;;;;5052169;28;20033;-68
2022/02/05 08:04:15;;;;;;;10.15;2.00;;;2.90;99.90;;;;;;5051174;28;20025;-68
2022/02/05 08:06:44;;;;;;;6.45;1.60;;;2.90;99.90;;;;;;5051624;28;20082;-69
2022/02/05 08:09:28;;;;;;;2.75;1.50;;;3.00;99.90;;;;;;5051084;28;20036;-68
2022/02/05 08:11:59;;;;;;;3.22;1.20;;;3.10;99.90;;;;;;5051181;28;20065;-68
2022/02/05 08:14:28;;;;;;;9.13;1.58;;;3.10;99.90;;;;;;5051699;28;20017;-67
2022/02/05 08:17:04;;;;;;;5.97;1.30;;;3.20;99.90;;;;;;5061406;28;20032;-67
2022/02/05 08:19:29;;;;;;;6.78;1.95;;;3.20;99.90;;;;;;5070750;28;20040;-68
2022/02/05 08:21:55;;;;;;;5.15;1.40;;;3.30;99.90;;;;;;5070273;28;20484;-67
2022/02/05 08:24:21;;;;;;;6.45;1.30;;;3.40;99.90;;;;;;5071604;28;20028;-67
2022/02/05 08:26:46;;;;;;;2.13;1.30;;;3.30;99.90;;;;;;5054684;28;20024;-67
2022/02/05 08:29:14;;;;;;;9.88;2.05;;;3.30;99.90;;;;;;5050569;28;20104;-67
2022/02/05 08:31:40;;;;;;;6.40;1.70;;;3.40;99.90;;;;;;5051298;28;20032;-68
2022/02/05 08:34:06;;;;;;;4.28;1.35;;;3.30;99.90;;;;;;5050403;28;20462;-68
2022/02/05 08:36:43;;;;;;;3.90;1.10;;;3.40;99.90;;;;;;5051543;28;20037;-68
2022/02/05 08:39:10;;;;;;;5.43;1.30;;;3.50;99.90;;;;;;5050575;28;20111;-67
2022/02/05 08:41:36;;;;;;;5.20;1.50;;;3.50;99.90;;;;;;5050953;28;20044;-67
2022/02/05 08:44:02;;;;;;;9.73;2.03;;;3.50;99.90;;;;;;5050222;28;20048;-67
2022/02/05 08:46:28;;;;;;;5.75;1.52;;;3.60;99.90;;;;;;5050672;28;20029;-67
2022/02/05 08:48:53;;;;;;;8.00;1.60;;;3.70;99.90;;;;;;5050483;28;20032;-68
2022/02/05 08:51:19;;;;;;;6.95;1.38;;;3.70;99.90;;;;;;5051352;28;20025;-69
2022/02/05 08:53:45;;;;;;;2.88;1.08;;;3.80;99.90;;;;;;5051201;28;20036;-69
2022/02/05 08:56:11;;;;;;;3.75;1.70;;;3.80;99.90;;;;;;5049758;28;20049;-69
2022/02/05 08:58:36;;;;;;;3.97;1.63;;;3.90;99.90;;;;;;5050710;28;20044;-69
2022/02/05 09:01:16;;;;;;;7.53;1.50;;;3.90;99.90;;;;;;5050429;28;20116;-69
2022/02/05 09:06:30;;;;;;;6.45;1.25;;;4.00;99.90;;;;;;5050741;28;20036;-69
2022/02/05 09:09:22;;;;;;;8.43;1.60;;;4.00;99.90;;;;;;5050257;28;20490;-68
2022/02/05 09:11:58;;;;;;;5.85;1.77;;;4.10;99.90;;;;;;5035509;28;20040;-68
2022/02/05 09:16:53;;;;;;;4.95;1.30;;;4.20;99.90;;;;;;5048942;28;20028;-68
2022/02/05 09:19:18;;;;;;;6.30;1.38;;;4.30;99.90;;;;;;5049856;28;20037;-69
2022/02/05 09:21:44;;;;;;;9.05;2.22;;;4.40;99.90;;;;;;5050831;28;20367;-68
2022/02/05 09:24:10;;;;;;;6.05;1.42;;;4.50;99.90;;;;;;5050171;28;20058;-68
2022/02/05 09:26:39;;;;;;;7.40;1.75;;;4.60;99.90;;;;;;5050497;28;20394;-67
2022/02/05 09:29:13;;;;;;;7.13;1.63;;;4.60;99.90;;;;;;5050581;28;20454;-67
2022/02/05 09:31:39;;;;;;;6.75;1.50;;;4.70;99.90;;;;;;5050691;28;20271;-68
2022/02/05 09:34:05;;;;;;;4.55;1.05;;;4.70;99.90;;;;;;5049908;28;20166;-68
2022/02/05 09:36:32;;;;;;;5.00;1.52;;;4.90;99.90;;;;;;5049194;28;20099;-68
2022/02/05 09:38:58;;;;;;;6.78;1.42;;;5.00;99.90;;;;;;5049773;28;20033;-68
2022/02/05 09:41:25;;;;;;;3.53;1.30;;;5.00;99.90;;;;;;5049395;28;20423;-68
2022/02/05 09:43:51;;;;;;;4.28;1.25;;;5.10;99.90;;;;;;5050616;28;20478;-70
2022/02/05 09:46:19;;;;;;;9.18;2.13;;;5.10;99.90;;;;;;5048855;28;20083;-69
2022/02/05 09:48:48;;;;;;;9.60;1.88;;;5.20;99.90;;;;;;5050431;28;20119;-69
2022/02/05 09:51:18;;;;;;;5.85;1.30;;;5.30;99.90;;;;;;5048760;28;20132;-69
2022/02/05 09:53:54;;;;;;;5.50;1.60;;;5.40;99.90;;;;;;5050970;28;20029;-70
2022/02/05 09:56:23;;;;;;;9.13;1.45;;;5.40;99.90;;;;;;5048597;28;20049;-70
2022/02/05 09:58:48;;;;;;;9.52;1.63;;;5.50;99.90;;;;;;5049032;28;20086;-69
2022/02/05 10:01:24;;;;;;;6.75;1.35;;;5.60;99.90;;;;;;5052803;28;20033;-69
2022/02/05 10:03:51;;;;;;;5.57;1.38;;;5.70;99.90;;;;;;5054101;28;20029;-69
2022/02/05 10:06:27;;;;;;;5.90;1.20;;;5.80;99.90;;;;;;5052312;28;20029;-69
2022/02/05 10:09:04;;;;;;;9.63;1.65;;;5.90;99.90;;;;;;5054020;28;20083;-69
2022/02/05 10:11:30;;;;;;;2.88;0.93;;;6.00;99.90;;;;;;5052703;28;20028;-71
2022/02/05 10:14:17;;;;;;;7.57;1.40;;;6.20;99.90;;;;;;5052985;28;20036;-70
2022/02/05 10:16:53;;;;;;;2.83;0.98;;;6.20;99.90;;;;;;5054317;28;20322;-70
2022/02/05 10:19:20;;;;;;;6.32;1.15;;;6.30;99.90;;;;;;5053108;28;20123;-70
2022/02/05 10:22:03;;;;;;;8.68;1.25;;;6.30;99.90;;;;;;5053878;28;20051;-69
2022/02/05 10:24:29;;;;;;;7.13;1.20;;;6.30;99.90;;;;;;5053717;28;20032;-69
2022/02/05 10:26:55;;;;;;;7.15;1.15;;;6.30;99.90;;;;;;5053177;28;20029;-69
2022/02/05 10:29:22;;;;;;;7.03;1.20;;;6.30;99.90;;;;;;5053445;28;20410;-69
2022/02/05 10:32:02;;;;;;;3.42;0.93;;;6.30;99.90;;;;;;5052169;28;20029;-69
2022/02/05 10:34:30;;;;;;;3.45;0.93;;;6.40;99.90;;;;;;5052376;28;20033;-69
2022/02/05 10:37:22;;;;;;;3.75;1.23;;;6.40;99.90;;;;;;5051654;28;20398;-69
2022/02/05 10:45:13;;;;;;;3.53;0.88;;;6.80;99.50;;;;;;5052378;28;20614;-69
2022/02/05 10:47:57;;;;;;;3.60;0.95;;;7.00;98.80;;;;;;5053713;28;20025;-70
2022/02/05 10:50:36;;;;;;;6.63;0.95;;;7.20;98.10;;;;;;5052843;28;20025;-70
2022/02/05 10:53:20;;;;;;;7.18;0.95;;;7.40;97.20;;;;;;5052577;28;20033;-70
2022/02/05 11:07:08;;;;;;;3.28;0.82;;;8.00;90.50;;;;;;5052787;28;20094;-69
2022/02/05 11:09:34;;;;;;;3.65;0.73;;;8.00;91.10;;;;;;5051978;28;20455;-69
2022/02/05 11:20:14;;;;;;;2.42;0.75;;;7.90;87.70;;;;;;5072180;28;20051;-70
2022/02/05 11:22:46;;;;;;;9.77;1.27;;;7.90;85.90;;;;;;5072817;28;20369;-69
2022/02/05 11:25:14;;;;;;;5.43;1.30;;;7.90;89.70;;;;;;5055618;28;20032;-68
2022/02/05 11:27:51;;;;;;;8.65;1.40;;;7.90;82.90;;;;;;5051279;28;20038;-68
2022/02/05 11:30:36;;;;;;;5.57;0.85;;;7.80;80.90;;;;;;5050611;28;20127;-69
2022/02/05 11:33:20;;;;;;;4.13;0.80;;;7.80;81.70;;;;;;5051536;28;20029;-69
2022/02/05 11:38:37;;;;;;;5.63;0.82;;;7.70;84.10;;;;;;5055262;28;20040;-69
2022/02/05 11:41:06;;;;;;;2.38;0.73;;;8.00;80.70;;;;;;5070458;28;20450;-69
2022/02/05 11:43:37;;;;;;;4.10;0.93;;;8.10;80.50;;;;;;5056063;28;20029;-68
2022/02/05 11:46:18;;;;;;;2.45;0.80;;;8.00;80.20;;;;;;5050788;28;20029;-69
2022/02/05 11:48:56;;;;;;;2.90;0.70;;;8.10;78.80;;;;;;5052317;28;20083;-69
2022/02/05 11:51:42;;;;;;;3.03;0.77;;;8.20;74.40;;;;;;5050710;28;20032;-69
2022/02/05 11:54:14;;;;;;;6.25;1.20;;;8.10;74.10;;;;;;5051921;28;20411;-67
2022/02/05 11:57:02;;;;;;;4.40;1.17;;;8.10;73.70;;;;;;5051316;28;20055;-67
2022/02/05 11:59:34;;;;;;;7.70;1.40;;;7.90;75.30;;;;;;5051052;28;20298;-68
2022/02/05 12:02:17;;;;;;;6.43;0.77;;;7.70;78.50;;;;;;5054671;28;20071;-68
2022/02/05 12:04:43;;;;;;;3.42;0.77;;;7.80;79.30;;;;;;5061241;28;20033;-68
2022/02/05 12:07:14;;;;;;;4.40;0.85;;;7.90;79.20;;;;;;5063617;28;20024;-67
2022/02/05 12:09:42;;;;;;;2.47;0.75;;;8.00;77.50;;;;;;5055204;28;20051;-68
2022/02/05 12:12:23;;;;;;;5.10;1.38;;;8.00;79.30;;;;;;5051431;28;20079;-68
2022/02/05 12:15:08;;;;;;;4.05;0.98;;;8.00;80.40;;;;;;5050868;28;20043;-68
2022/02/05 12:20:32;;;;;;;4.18;0.77;;;8.10;76.40;;;;;;5051478;28;20037;-68
2022/02/05 12:25:41;;;;;;;4.00;0.68;;;8.00;78.40;;;;;;5056313;28;20024;-68
2022/02/05 12:28:29;;;;;;;4.75;0.95;;;8.00;79.60;;;;;;5070285;28;20060;-68
2022/02/05 12:31:01;;;;;;;4.82;0.63;;;8.10;74.10;;;;;;5059973;28;20037;-68
2022/02/05 12:33:43;;;;;;;3.72;0.65;;;8.10;73.60;;;;;;5050528;28;20029;-68
2022/02/05 12:36:09;;;;;;;3.00;0.73;;;8.10;73.60;;;;;;5051189;28;20032;-68
2022/02/05 12:38:42;;;;;;;3.63;0.80;;;8.10;71.60;;;;;;5053509;28;20021;-68
2022/02/05 12:41:11;;;;;;;1.95;0.55;;;8.20;69.40;;;;;;5054154;28;20044;-68
2022/02/05 12:43:54;;;;;;;3.78;0.80;;;8.10;71.50;;;;;;5050183;28;20033;-67
2022/02/05 12:46:27;;;;;;;4.65;0.68;;;8.10;72.60;;;;;;5031478;28;20111;-68
2022/02/05 12:48:59;;;;;;;2.95;0.85;;;8.10;72.80;;;;;;5031565;28;20752;-68
2022/02/05 12:51:27;;;;;;;4.68;0.55;;;8.10;71.30;;;;;;5049347;28;20123;-68
2022/02/05 12:54:03;;;;;;;3.00;0.70;;;8.00;72.90;;;;;;5049503;28;20032;-67
2022/02/05 12:56:34;;;;;;;1.65;0.98;;;8.10;73.50;;;;;;5049813;28;20150;-68
2022/02/05 12:59:03;;;;;;;3.05;0.70;;;8.10;70.60;;;;;;5050877;28;20114;-69
2022/02/05 13:01:31;;;;;;;6.97;0.73;;;8.10;70.40;;;;;;5033778;28;20051;-68
2022/02/05 13:04:14;;;;;;;1.40;0.55;;;8.20;70.40;;;;;;5050721;28;20114;-68
2022/02/05 13:06:39;;;;;;;2.13;0.50;;;8.00;71.90;;;;;;5051097;28;20036;-68
2022/02/05 13:09:22;;;;;;;2.17;0.40;;;8.20;71.60;;;;;;5050571;28;20031;-68
2022/02/05 13:11:58;;;;;;;2.65;0.85;;;8.60;70.70;;;;;;5028786;28;20037;-68
2022/02/05 13:14:43;;;;;;;4.97;1.40;;;9.00;68.90;;;;;;5035531;28;20013;-69
2022/02/05 13:17:21;;;;;;;2.50;0.52;;;9.20;66.90;;;;;;5050408;28;20029;-69
2022/02/05 13:20:13;;;;;;;3.63;0.47;;;9.50;65.70;;;;;;5051317;28;20029;-69
2022/02/05 13:25:48;;;;;;;3.58;0.75;;;10.30;63.10;;;;;;5051446;28;20118;-68
2022/02/05 13:36:10;;;;;;;3.03;0.60;;;9.30;63.80;;;;;;5070250;28;20028;-69
2022/02/05 13:41:29;;;;;;;4.82;0.73;;;9.10;66.30;;;;;;5050675;28;20086;-68
2022/02/05 13:43:56;;;;;;;3.47;0.70;;;9.30;64.10;;;;;;5050189;28;20528;-69
2022/02/05 13:46:22;;;;;;;1.88;0.70;;;9.40;64.20;;;;;;5050754;28;20039;-68
2022/02/05 13:48:48;;;;;;;3.13;0.40;;;9.30;63.20;;;;;;5050638;28;20068;-68
2022/02/05 13:51:16;;;;;;;3.67;0.80;;;9.10;65.10;;;;;;5050014;28;20056;-70
2022/02/05 13:53:56;;;;;;;4.03;0.70;;;8.90;65.40;;;;;;5050996;28;20074;-69
2022/02/05 13:56:23;;;;;;;5.38;0.75;;;8.70;64.30;;;;;;5050420;28;20432;-69
2022/02/05 13:58:48;;;;;;;4.05;0.60;;;8.40;66.50;;;;;;5050874;28;20386;-72
2022/02/05 14:01:35;;;;;;;2.95;0.63;;;8.20;66.80;;;;;;5049788;28;20040;-70
2022/02/05 14:04:13;;;;;;;2.22;0.50;;;8.00;69.00;;;;;;5048582;28;20118;-69
2022/02/05 14:06:56;;;;;;;3.90;0.70;;;7.90;70.30;;;;;;5050585;28;20434;-68
2022/02/05 14:09:23;;;;;;;5.00;0.95;;;8.00;71.30;;;;;;5050522;28;20112;-68
2022/02/05 14:11:49;;;;;;;6.20;1.38;;;8.00;72.30;;;;;;5050847;28;20021;-68
2022/02/05 14:14:29;;;;;;;6.93;2.00;;;7.90;74.00;;;;;;5048991;28;20588;-67
2022/02/05 14:16:55;;;;;;;;;;;7.90;72.40;;;;;;5049276;28;20029;-67
2022/02/05 14:19:27;;;;;;;4.25;1.55;;;8.00;72.60;;;;;;5050460;28;19912;-67
2022/02/05 14:21:54;;;;;;;3.88;0.93;;;7.90;74.40;;;;;;5050649;28;20024;-68
2022/02/05 14:24:27;;;;;;;2.63;0.80;;;7.80;76.60;;;;;;5050045;28;20021;-68
2022/02/05 14:27:06;;;;;;;4.50;1.00;;;7.80;76.70;;;;;;5050456;28;20036;-68
2022/02/05 14:32:22;;;;;;;4.22;1.00;;;7.70;78.10;;;;;;5049586;28;20060;-72
2022/02/05 14:40:43;;;;;;;6.63;0.88;;;7.70;82.40;;;;;;5043026;28;20544;-71
2022/02/05 14:43:09;;;;;;;1.65;0.60;;;7.70;83.20;;;;;;5049787;28;20029;-71
2022/02/05 14:45:35;;;;;;;5.40;0.70;;;7.80;79.40;;;;;;5050297;28;20422;-72
2022/02/05 14:48:00;;;;;;;5.57;0.93;;;7.80;79.80;;;;;;5052144;28;20033;-72
2022/02/05 14:50:26;;;;;;;5.55;1.15;;;7.90;80.10;;;;;;5053466;28;20082;-74
2022/02/05 14:52:52;;;;;;;3.38;0.73;;;7.90;79.40;;;;;;5054281;28;20054;-73
2022/02/05 14:55:19;;;;;;;3.80;1.00;;;7.90;78.30;;;;;;5052757;28;20179;-73
2022/02/05 14:57:45;;;;;;;3.80;0.63;;;7.90;76.90;;;;;;5053695;28;20083;-72
2022/02/05 15:00:11;;;;;;;2.83;0.80;;;7.90;76.80;;;;;;5052414;28;20029;-70
2022/02/05 15:02:37;;;;;;;3.65;1.05;;;7.80;74.90;;;;;;5053104;28;20028;-68
2022/02/05 15:05:10;;;;;;;4.53;0.88;;;7.60;75.40;;;;;;5053512;28;20025;-69
2022/02/05 15:07:37;;;;;;;4.28;0.85;;;7.50;75.20;;;;;;5051147;28;20032;-69
2022/02/05 15:10:03;;;;;;;4.38;0.45;;;7.40;74.40;;;;;;5050668;28;20039;-70
2022/02/05 15:12:29;;;;;;;3.80;0.70;;;7.30;75.00;;;;;;5051868;28;20600;-81
2022/02/05 15:14:55;;;;;;;3.42;0.73;;;7.20;75.80;;;;;;5052663;28;20124;-70
2022/02/05 15:17:20;;;;;;;1.83;0.60;;;7.20;77.20;;;;;;5052564;28;20025;-69
2022/02/05 15:19:46;;;;;;;5.10;0.85;;;7.10;78.50;;;;;;5057441;28;20115;-70
2022/02/05 15:22:12;;;;;;;2.45;0.90;;;7.00;79.60;;;;;;5056309;28;20033;-69
2022/02/05 15:24:37;;;;;;;4.88;1.50;;;6.90;80.60;;;;;;5067512;28;20098;-69
2022/02/05 15:27:03;;;;;;;6.97;1.80;;;6.80;82.00;;;;;;5061945;28;20033;-69
2022/02/05 15:29:29;;;;;;;5.00;2.00;;;6.70;83.50;;;;;;5048954;28;20032;-68
2022/02/05 15:31:55;;;;;;;3.53;1.10;;;6.60;84.20;;;;;;5050864;28;20040;-72
2022/02/05 15:34:21;;;;;;;2.85;0.85;;;6.60;84.40;;;;;;5052179;28;20033;-72
2022/02/05 15:36:53;;;;;;;2.28;0.70;;;6.60;83.90;;;;;;5052624;28;20029;-72
2022/02/05 15:44:37;;;;;;;7.03;1.25;;;6.30;86.80;;;;;;5052714;28;20440;-69
2022/02/05 15:47:04;;;;;;;4.18;0.90;;;6.30;88.70;;;;;;5070524;28;20112;-69
2022/02/05 15:49:29;;;;;;;3.25;0.80;;;6.20;89.40;;;;;;5072901;28;20111;-69
2022/02/05 15:51:58;;;;;;;2.53;0.80;;;6.10;90.00;;;;;;5052938;28;20163;-70
2022/02/05 15:54:26;;;;;;;1.58;0.70;;;6.10;90.30;;;;;;5052412;28;20051;-70
2022/02/05 15:59:38;;;;;;;4.95;1.75;;;6.00;91.00;;;;;;5052686;28;20037;-70
2022/02/05 16:02:04;;;;;;;4.95;1.30;;;6.00;91.60;;;;;;5051637;28;20474;-70
2022/02/05 16:04:30;;;;;;;3.80;0.90;;;5.90;91.90;;;;;;5052302;28;20032;-70
2022/02/05 16:06:55;;;;;;;4.40;0.93;;;5.90;92.40;;;;;;5051496;28;20547;-71
2022/02/05 16:09:21;;;;;;;5.38;1.10;;;5.90;92.60;;;;;;5051577;28;20037;-79
2022/02/05 16:11:47;;;;;;;7.90;0.90;;;5.80;93.10;;;;;;5051319;28;20489;-80
2022/02/05 16:14:12;;;;;;;3.13;1.20;;;5.80;93.80;;;;;;5051473;28;20025;-76
2022/02/05 16:16:38;;;;;;;2.60;0.95;;;5.70;94.40;;;;;;5052327;28;20108;-79
2022/02/05 16:19:03;;;;;;;4.93;1.58;;;5.60;94.70;;;;;;5051647;28;20083;-80
2022/02/05 16:21:29;;;;;;;7.82;2.13;;;5.60;95.00;;;;;;5052603;28;20045;-82
2022/02/05 16:23:55;;;;;;;6.93;1.60;;;5.60;95.40;;;;;;5054488;28;20268;-72
2022/02/05 16:26:20;;;;;;;6.00;1.40;;;5.50;95.80;;;;;;5054039;28;20478;-81
2022/02/05 16:28:46;;;;;;;6.10;1.40;;;5.50;96.10;;;;;;5051814;28;20029;-79
2022/02/05 16:31:12;;;;;;;4.07;1.27;;;5.50;96.50;;;;;;5050466;28;20029;-79